sensor_id;sensor_type;location;lat;lon;timestamp;pressure;altitude;pressure_sealevel;temperature;humidity
31096;BME280;17749;51.962;8.560;2023-04-08T05:03:14;100716.00;;;5.62;100.00
31096;BME280;17749;51.962;8.560;2023-04-08T05:05:42;100713.38;;;5.62;100.00
31096;BME280;17749;51.962;8.560;2023-04-08T05:08:09;100699.28;;;5.60;100.00
31096;BME280;17749;51.962;8.560;2023-04-08T05:10:36;100712.53;;;5.59;100.00
31096;BME280;17749;51.962;8.560;2023-04-08T05:13:02;100712.50;;;5.60;100.00
31096;BME280;17749;51.962;8.560;2023-04-08T05:15:29;100709.84;;;5.60;100.00
31096;BME280;17749;51.962;8.560;2023-04-08T05:17:56;100718.66;;;5.62;100.00
31096;BME280;17749;51.962;8.560;2023-04-08T05:20:23;100719.56;;;5.61;100.00
31096;BME280;17749;51.962;8.560;2023-04-08T05:22:50;100723.91;;;5.65;100.00
31096;BME280;17749;51.962;8.560;2023-04-08T05:25:18;100719.47;;;5.67;100.00
31096;BME280;17749;51.962;8.560;2023-04-08T05:27:45;100712.47;;;5.66;100.00
31096;BME280;17749;51.962;8.560;2023-04-08T05:30:12;100732.63;;;5.74;100.00
31096;BME280;17749;51.962;8.560;2023-04-08T05:32:39;100732.63;;;5.77;100.00
31096;BME280;17749;51.962;8.560;2023-04-08T05:35:10;100742.25;;;5.81;100.00
31096;BME280;17749;51.962;8.560;2023-04-08T05:37:40;100744.84;;;5.84;100.00
31096;BME280;17749;51.962;8.560;2023-04-08T05:40:07;100734.31;;;5.82;100.00
31096;BME280;17749;51.962;8.560;2023-04-08T05:42:34;100743.03;;;5.89;100.00
31096;BME280;17749;51.962;8.560;2023-04-08T05:45:04;100736.91;;;5.87;100.00
31096;BME280;17749;51.962;8.560;2023-04-08T05:47:31;100743.00;;;5.92;100.00
31096;BME280;17749;51.962;8.560;2023-04-08T05:49:58;100744.75;;;5.96;100.00
31096;BME280;17749;51.962;8.560;2023-04-08T05:52:25;100743.00;;;5.98;100.00
31096;BME280;17749;51.962;8.560;2023-04-08T05:55:02;100756.19;;;6.00;100.00
31096;BME280;17749;51.962;8.560;2023-04-08T05:57:29;100746.50;;;6.00;100.00
31096;BME280;17749;51.962;8.560;2023-04-08T05:59:56;100740.31;;;6.00;100.00
31096;BME280;17749;51.962;8.560;2023-04-08T06:02:23;100741.16;;;6.03;100.00
31096;BME280;17749;51.962;8.560;2023-04-08T06:04:51;100746.47;;;6.03;100.00
31096;BME280;17749;51.962;8.560;2023-04-08T06:07:18;100757.00;;;6.06;100.00
31096;BME280;17749;51.962;8.560;2023-04-08T06:09:45;100757.03;;;6.03;100.00
31096;BME280;17749;51.962;8.560;2023-04-08T06:12:12;100770.22;;;6.06;100.00
31096;BME280;17749;51.962;8.560;2023-04-08T06:14:39;100765.88;;;5.99;100.00
31096;BME280;17749;51.962;8.560;2023-04-08T06:17:07;100772.84;;;6.06;100.00
31096;BME280;17749;51.962;8.560;2023-04-08T06:19:34;100785.22;;;6.04;100.00
31096;BME280;17749;51.962;8.560;2023-04-08T06:22:04;100774.69;;;6.01;100.00
31096;BME280;17749;51.962;8.560;2023-04-08T06:24:33;100785.19;;;6.07;100.00
31096;BME280;17749;51.962;8.560;2023-04-08T06:27:00;100785.22;;;6.04;100.00
31096;BME280;17749;51.962;8.560;2023-04-08T06:29:27;100793.97;;;6.09;100.00
31096;BME280;17749;51.962;8.560;2023-04-08T06:31:55;100792.25;;;6.08;100.00
31096;BME280;17749;51.962;8.560;2023-04-08T06:34:22;100791.41;;;6.03;100.00
31096;BME280;17749;51.962;8.560;2023-04-08T06:36:49;100793.94;;;6.12;100.00
31096;BME280;17749;51.962;8.560;2023-04-08T06:39:16;100792.16;;;6.13;100.00
31096;BME280;17749;51.962;8.560;2023-04-08T06:41:46;100793.91;;;6.15;100.00
31096;BME280;17749;51.962;8.560;2023-04-08T06:44:25;100798.34;;;6.13;100.00
31096;BME280;17749;51.962;8.560;2023-04-08T06:46:53;100807.16;;;6.12;100.00
31096;BME280;17749;51.962;8.560;2023-04-08T06:49:22;100810.66;;;6.14;100.00
31096;BME280;17749;51.962;8.560;2023-04-08T06:51:49;100811.50;;;6.20;100.00
31096;BME280;17749;51.962;8.560;2023-04-08T06:54:19;100827.28;;;6.26;100.00
31096;BME280;17749;51.962;8.560;2023-04-08T06:56:46;100826.41;;;6.27;100.00
31096;BME280;17749;51.962;8.560;2023-04-08T06:59:14;100830.03;;;6.18;100.00
31096;BME280;17749;51.962;8.560;2023-04-08T07:01:41;100830.91;;;6.19;100.00
31096;BME280;17749;51.962;8.560;2023-04-08T07:04:08;100825.66;;;6.14;100.00
31096;BME280;17749;51.962;8.560;2023-04-08T07:06:39;100826.53;;;6.16;100.00
31096;BME280;17749;51.962;8.560;2023-04-08T07:09:06;100820.34;;;6.15;100.00
31096;BME280;17749;51.962;8.560;2023-04-08T07:11:36;100821.31;;;6.08;100.00
31096;BME280;17749;51.962;8.560;2023-04-08T07:14:11;100831.88;;;6.10;100.00
31096;BME280;17749;51.962;8.560;2023-04-08T07:16:38;100830.91;;;6.19;100.00
31096;BME280;17749;51.962;8.560;2023-04-08T07:19:07;100834.34;;;6.27;100.00
31096;BME280;17749;51.962;8.560;2023-04-08T07:21:34;100834.28;;;6.33;100.00
31096;BME280;17749;51.962;8.560;2023-04-08T07:24:08;100834.19;;;6.39;100.00
31096;BME280;17749;51.962;8.560;2023-04-08T07:26:37;100838.53;;;6.46;100.00
31096;BME280;17749;51.962;8.560;2023-04-08T07:29:04;100840.25;;;6.50;100.00
31096;BME280;17749;51.962;8.560;2023-04-08T07:31:32;100856.06;;;6.58;100.00
31096;BME280;17749;51.962;8.560;2023-04-08T07:33:59;100844.50;;;6.64;100.00
31096;BME280;17749;51.962;8.560;2023-04-08T07:36:26;100857.63;;;6.73;100.00
31096;BME280;17749;51.962;8.560;2023-04-08T07:38:55;100847.97;;;6.69;100.00
31096;BME280;17749;51.962;8.560;2023-04-08T07:41:22;100849.69;;;6.73;100.00
31096;BME280;17749;51.962;8.560;2023-04-08T07:43:50;100846.13;;;6.77;100.00
31096;BME280;17749;51.962;8.560;2023-04-08T07:46:17;100846.13;;;6.77;100.00
31096;BME280;17749;51.962;8.560;2023-04-08T07:48:44;100856.56;;;6.86;100.00
31096;BME280;17749;51.962;8.560;2023-04-08T07:51:12;100849.44;;;6.94;100.00
31096;BME280;17749;51.962;8.560;2023-04-08T07:53:39;100843.13;;;7.01;100.00
31096;BME280;17749;51.962;8.560;2023-04-08T07:56:11;100850.97;;;7.11;100.00
31096;BME280;17749;51.962;8.560;2023-04-08T07:58:39;100862.31;;;7.20;100.00
31096;BME280;17749;51.962;8.560;2023-04-08T08:01:14;100866.81;;;7.14;100.00
31096;BME280;17749;51.962;8.560;2023-04-08T08:03:41;100865.91;;;7.16;100.00
31096;BME280;17749;51.962;8.560;2023-04-08T08:06:10;100867.66;;;7.16;100.00
31096;BME280;17749;51.962;8.560;2023-04-08T08:08:38;100872.06;;;7.17;100.00
31096;BME280;17749;51.962;8.560;2023-04-08T08:11:05;100871.13;;;7.21;100.00
31096;BME280;17749;51.962;8.560;2023-04-08T08:13:32;100877.16;;;7.32;100.00
31096;BME280;17749;51.962;8.560;2023-04-08T08:16:00;100873.56;;;7.36;100.00
31096;BME280;17749;51.962;8.560;2023-04-08T08:18:27;100878.75;;;7.42;100.00
31096;BME280;17749;51.962;8.560;2023-04-08T08:20:54;100876.91;;;7.47;100.00
31096;BME280;17749;51.962;8.560;2023-04-08T08:23:22;100882.06;;;7.57;100.00
31096;BME280;17749;51.962;8.560;2023-04-08T08:26:00;100885.47;;;7.65;100.00
31096;BME280;17749;51.962;8.560;2023-04-08T08:28:29;100880.97;;;7.72;100.00
31096;BME280;17749;51.962;8.560;2023-04-08T08:30:58;100880.03;;;7.74;100.00
31096;BME280;17749;51.962;8.560;2023-04-08T08:33:26;100879.91;;;7.83;100.00
31096;BME280;17749;51.962;8.560;2023-04-08T08:35:53;100883.31;;;7.92;100.00
31096;BME280;17749;51.962;8.560;2023-04-08T08:38:23;100876.09;;;8.00;100.00
31096;BME280;17749;51.962;8.560;2023-04-08T08:40:54;100874.22;;;8.05;100.00
31096;BME280;17749;51.962;8.560;2023-04-08T08:43:25;100875.84;;;8.12;100.00
31096;BME280;17749;51.962;8.560;2023-04-08T08:45:52;100868.81;;;8.11;100.00
31096;BME280;17749;51.962;8.560;2023-04-08T08:48:20;100868.75;;;8.14;100.00
31096;BME280;17749;51.962;8.560;2023-04-08T08:50:47;100885.19;;;8.33;100.00
31096;BME280;17749;51.962;8.560;2023-04-08T08:53:17;100891.19;;;8.46;100.00
31096;BME280;17749;51.962;8.560;2023-04-08T08:55:48;100890.19;;;8.53;100.00
31096;BME280;17749;51.962;8.560;2023-04-08T08:58:39;100883.66;;;8.69;100.00
31096;BME280;17749;51.962;8.560;2023-04-08T09:01:34;100890.81;;;8.67;100.00
31096;BME280;17749;51.962;8.560;2023-04-08T09:04:28;100892.31;;;8.81;100.00
31096;BME280;17749;51.962;8.560;2023-04-08T09:07:17;100887.66;;;8.92;100.00
31096;BME280;17749;51.962;8.560;2023-04-08T09:09:50;100889.84;;;9.13;100.00
31096;BME280;17749;51.962;8.560;2023-04-08T09:12:21;100897.56;;;9.26;100.00
31096;BME280;17749;51.962;8.560;2023-04-08T09:15:04;100896.72;;;9.24;100.00
31096;BME280;17749;51.962;8.560;2023-04-08T09:17:40;100895.91;;;9.20;100.00
31096;BME280;17749;51.962;8.560;2023-04-08T09:20:12;100909.47;;;9.06;100.00
31096;BME280;17749;51.962;8.560;2023-04-08T09:22:58;100907.91;;;8.96;100.00
31096;BME280;17749;51.962;8.560;2023-04-08T09:25:30;100906.09;;;8.98;100.00
31096;BME280;17749;51.962;8.560;2023-04-08T09:28:00;100900.59;;;9.07;100.00
31096;BME280;17749;51.962;8.560;2023-04-08T09:30:32;100902.09;;;9.20;100.00
31096;BME280;17749;51.962;8.560;2023-04-08T09:33:08;100910.63;;;9.35;100.00
31096;BME280;17749;51.962;8.560;2023-04-08T09:35:39;100906.78;;;9.48;100.00
31096;BME280;17749;51.962;8.560;2023-04-08T09:38:07;100904.84;;;9.56;100.00
31096;BME280;17749;51.962;8.560;2023-04-08T09:40:35;100912.59;;;9.65;100.00
31096;BME280;17749;51.962;8.560;2023-04-08T09:43:07;100923.25;;;9.64;100.00
31096;BME280;17749;51.962;8.560;2023-04-08T09:45:35;100921.31;;;9.72;100.00
31096;BME280;17749;51.962;8.560;2023-04-08T09:48:11;100914.13;;;9.76;100.00
31096;BME280;17749;51.962;8.560;2023-04-08T09:50:42;100926.47;;;9.80;100.00
31096;BME280;17749;51.962;8.560;2023-04-08T09:53:18;100927.28;;;9.82;100.00
31096;BME280;17749;51.962;8.560;2023-04-08T09:55:50;100924.59;;;9.83;100.00
31096;BME280;17749;51.962;8.560;2023-04-08T09:58:21;100926.91;;;9.97;100.00
31096;BME280;17749;51.962;8.560;2023-04-08T10:00:54;100916.50;;;9.88;100.00
31096;BME280;17749;51.962;8.560;2023-04-08T10:03:34;100925.28;;;9.90;100.00
31096;BME280;17749;51.962;8.560;2023-04-08T10:06:07;100909.41;;;9.87;100.00
31096;BME280;17749;51.962;8.560;2023-04-08T10:08:37;100924.53;;;9.85;100.00
31096;BME280;17749;51.962;8.560;2023-04-08T10:11:06;100936.00;;;9.87;100.00
31096;BME280;17749;51.962;8.560;2023-04-08T10:13:34;100932.47;;;9.88;100.00
31096;BME280;17749;51.962;8.560;2023-04-08T10:16:19;100937.63;;;9.94;100.00
31096;BME280;17749;51.962;8.560;2023-04-08T10:18:48;100939.44;;;9.92;100.00
31096;BME280;17749;51.962;8.560;2023-04-08T10:21:36;100940.44;;;9.88;100.00
31096;BME280;17749;51.962;8.560;2023-04-08T10:24:10;100946.81;;;9.81;100.00
31096;BME280;17749;51.962;8.560;2023-04-08T10:26:41;100950.16;;;9.89;100.00
31096;BME280;17749;51.962;8.560;2023-04-08T10:31:46;100933.66;;;10.10;100.00
31096;BME280;17749;51.962;8.560;2023-04-08T10:34:21;100940.50;;;10.21;100.00
31096;BME280;17749;51.962;8.560;2023-04-08T10:37:16;100931.56;;;10.25;100.00
31096;BME280;17749;51.962;8.560;2023-04-08T10:39:57;100932.06;;;10.41;100.00
31096;BME280;17749;51.962;8.560;2023-04-08T10:42:45;100939.09;;;10.43;100.00
31096;BME280;17749;51.962;8.560;2023-04-08T10:45:24;100922.59;;;10.29;100.00
31096;BME280;17749;51.962;8.560;2023-04-08T10:48:11;100935.03;;;10.27;100.00
31096;BME280;17749;51.962;8.560;2023-04-08T10:53:37;100939.78;;;10.50;100.00
31096;BME280;17749;51.962;8.560;2023-04-08T10:56:23;100940.63;;;10.52;100.00
31096;BME280;17749;51.962;8.560;2023-04-08T10:59:04;100930.53;;;10.65;100.00
31096;BME280;17749;51.962;8.560;2023-04-08T11:01:38;100925.03;;;10.71;100.00
31096;BME280;17749;51.962;8.560;2023-04-08T11:04:19;100924.78;;;10.80;100.00
31096;BME280;17749;51.962;8.560;2023-04-08T11:06:57;100922.25;;;10.74;100.00
31096;BME280;17749;51.962;8.560;2023-04-08T11:09:33;100924.88;;;10.77;100.00
31096;BME280;17749;51.962;8.560;2023-04-08T11:12:09;100923.91;;;10.80;100.00
31096;BME280;17749;51.962;8.560;2023-04-08T11:14:52;100926.09;;;10.96;100.00
31096;BME280;17749;51.962;8.560;2023-04-08T11:17:25;100936.41;;;11.09;100.00
31096;BME280;17749;51.962;8.560;2023-04-08T11:19:53;100933.44;;;11.18;100.00
31096;BME280;17749;51.962;8.560;2023-04-08T11:22:20;100943.91;;;11.26;100.00
31096;BME280;17749;51.962;8.560;2023-04-08T11:24:48;100943.13;;;11.22;100.00
31096;BME280;17749;51.962;8.560;2023-04-08T11:27:15;100948.72;;;11.13;100.00
31096;BME280;17749;51.962;8.560;2023-04-08T11:29:42;100945.47;;;11.02;100.00
31096;BME280;17749;51.962;8.560;2023-04-08T11:32:10;100945.91;;;10.86;100.00
31096;BME280;17749;51.962;8.560;2023-04-08T11:34:38;100943.34;;;10.83;100.00
31096;BME280;17749;51.962;8.560;2023-04-08T11:37:06;100945.81;;;10.89;100.00
31096;BME280;17749;51.962;8.560;2023-04-08T11:39:33;100943.38;;;10.82;100.00
31096;BME280;17749;51.962;8.560;2023-04-08T11:42:00;100942.34;;;10.87;100.00
31096;BME280;17749;51.962;8.560;2023-04-08T11:44:31;100948.47;;;10.91;100.00
31096;BME280;17749;51.962;8.560;2023-04-08T11:47:02;100950.38;;;10.86;100.00
31096;BME280;17749;51.962;8.560;2023-04-08T11:49:42;100948.00;;;10.75;100.00
31096;BME280;17749;51.962;8.560;2023-04-08T11:52:10;100941.19;;;10.65;100.00
31096;BME280;17749;51.962;8.560;2023-04-08T11:54:40;100945.78;;;10.58;100.00
31096;BME280;17749;51.962;8.560;2023-04-08T11:57:08;100946.63;;;10.60;100.00
31096;BME280;17749;51.962;8.560;2023-04-08T11:59:36;100942.16;;;10.61;100.00
31096;BME280;17749;51.962;8.560;2023-04-08T12:02:03;100947.28;;;10.68;100.00
31096;BME280;17749;51.962;8.560;2023-04-08T12:04:30;100946.09;;;10.80;100.00
31096;BME280;17749;51.962;8.560;2023-04-08T12:06:58;100945.81;;;10.89;100.00
31096;BME280;17749;51.962;8.560;2023-04-08T12:09:24;100945.47;;;11.02;100.00
31096;BME280;17749;51.962;8.560;2023-04-08T12:11:51;100944.06;;;10.90;100.00
31096;BME280;17749;51.962;8.560;2023-04-08T12:14:18;100944.94;;;10.90;100.00
31096;BME280;17749;51.962;8.560;2023-04-08T12:16:47;100944.19;;;10.84;100.00
31096;BME280;17749;51.962;8.560;2023-04-08T12:19:14;100940.66;;;10.83;100.00
31096;BME280;17749;51.962;8.560;2023-04-08T12:21:41;100946.41;;;11.01;100.00
31096;BME280;17749;51.962;8.560;2023-04-08T12:24:08;100945.94;;;11.16;100.00
31096;BME280;17749;51.962;8.560;2023-04-08T12:26:35;100948.34;;;11.25;100.00
31096;BME280;17749;51.962;8.560;2023-04-08T12:29:01;100957.44;;;11.18;100.00
31096;BME280;17749;51.962;8.560;2023-04-08T12:31:29;100952.00;;;11.21;100.00
31096;BME280;17749;51.962;8.560;2023-04-08T12:33:56;100956.66;;;11.14;100.00
31096;BME280;17749;51.962;8.560;2023-04-08T12:36:23;100953.88;;;11.19;100.00
31096;BME280;17749;51.962;8.560;2023-04-08T12:38:50;100959.22;;;11.19;100.00
31096;BME280;17749;51.962;8.560;2023-04-08T12:41:17;100957.19;;;11.27;100.00
31096;BME280;17749;51.962;8.560;2023-04-08T12:43:44;100959.28;;;11.16;100.00
31096;BME280;17749;51.962;8.560;2023-04-08T12:46:11;100952.84;;;11.23;100.00
31096;BME280;17749;51.962;8.560;2023-04-08T12:48:39;100960.91;;;11.22;100.00
31096;BME280;17749;51.962;8.560;2023-04-08T12:51:06;100962.41;;;11.01;100.00
31096;BME280;17749;51.962;8.560;2023-04-08T12:53:36;100954.56;;;10.94;100.00
31096;BME280;17749;51.962;8.560;2023-04-08T12:56:03;100956.16;;;11.00;100.00
31096;BME280;17749;51.962;8.560;2023-04-08T12:58:30;100954.13;;;11.10;100.00
31096;BME280;17749;51.962;8.560;2023-04-08T13:00:57;100956.16;;;11.02;100.00
31096;BME280;17749;51.962;8.560;2023-04-08T13:03:24;100953.44;;;11.03;100.00
31096;BME280;17749;51.962;8.560;2023-04-08T13:05:51;100956.06;;;11.05;100.00
31096;BME280;17749;51.962;8.560;2023-04-08T13:08:18;100959.66;;;11.04;100.00
31096;BME280;17749;51.962;8.560;2023-04-08T13:10:45;100958.91;;;10.99;100.00
31096;BME280;17749;51.962;8.560;2023-04-08T13:13:12;100961.00;;;10.87;100.00
31096;BME280;17749;51.962;8.560;2023-04-08T13:15:39;100958.19;;;10.92;100.00
31096;BME280;17749;51.962;8.560;2023-04-08T13:18:06;100960.91;;;10.90;100.00
31096;BME280;17749;51.962;8.560;2023-04-08T13:20:34;100961.91;;;10.86;100.00
31096;BME280;17749;51.962;8.560;2023-04-08T13:23:01;100959.28;;;10.85;100.00
31096;BME280;17749;51.962;8.560;2023-04-08T13:25:27;100959.19;;;10.88;100.00
31096;BME280;17749;51.962;8.560;2023-04-08T13:27:54;100956.91;;;10.74;100.00
31096;BME280;17749;51.962;8.560;2023-04-08T13:30:21;100956.31;;;10.63;100.00
31096;BME280;17749;51.962;8.560;2023-04-08T13:32:48;100955.44;;;10.64;100.00
31096;BME280;17749;51.962;8.560;2023-04-08T13:35:15;100955.25;;;10.70;100.00
31096;BME280;17749;51.962;8.560;2023-04-08T13:37:42;100956.84;;;10.77;100.00
31096;BME280;17749;51.962;8.560;2023-04-08T13:40:09;100954.38;;;10.69;100.00
31096;BME280;17749;51.962;8.560;2023-04-08T13:42:37;100957.16;;;10.65;100.00
31096;BME280;17749;51.962;8.560;2023-04-08T13:45:05;100958.03;;;10.65;100.00
31096;BME280;17749;51.962;8.560;2023-04-08T13:47:31;100955.47;;;10.62;100.00
31096;BME280;17749;51.962;8.560;2023-04-08T13:50:01;100953.63;;;10.64;100.00
31096;BME280;17749;51.962;8.560;2023-04-08T13:52:28;100951.72;;;10.69;100.00
31096;BME280;17749;51.962;8.560;2023-04-08T13:54:54;100953.56;;;10.66;100.00
31096;BME280;17749;51.962;8.560;2023-04-08T13:57:22;100939.50;;;10.61;100.00
31096;BME280;17749;51.962;8.560;2023-04-08T13:59:49;100952.97;;;10.56;100.00
31096;BME280;17749;51.962;8.560;2023-04-08T14:02:16;100937.94;;;10.53;100.00
31096;BME280;17749;51.962;8.560;2023-04-08T14:04:43;100939.50;;;10.61;100.00
31096;BME280;17749;51.962;8.560;2023-04-08T14:07:12;100935.06;;;10.61;100.00
31096;BME280;17749;51.962;8.560;2023-04-08T14:09:39;100942.16;;;10.61;100.00
31096;BME280;17749;51.962;8.560;2023-04-08T14:12:06;100928.78;;;10.64;100.00
31096;BME280;17749;51.962;8.560;2023-04-08T14:14:33;100924.22;;;10.69;100.00
31096;BME280;17749;51.962;8.560;2023-04-08T14:17:00;100930.19;;;10.77;100.00
31096;BME280;17749;51.962;8.560;2023-04-08T14:19:27;100936.28;;;10.82;100.00
31096;BME280;17749;51.962;8.560;2023-04-08T14:21:54;100940.69;;;10.82;100.00
31096;BME280;17749;51.962;8.560;2023-04-08T14:24:22;100940.69;;;10.82;100.00
31096;BME280;17749;51.962;8.560;2023-04-08T14:26:48;100940.66;;;10.83;100.00
31096;BME280;17749;51.962;8.560;2023-04-08T14:29:16;100940.50;;;10.89;100.00
31096;BME280;17749;51.962;8.560;2023-04-08T14:31:43;100939.53;;;10.92;100.00
31096;BME280;17749;51.962;8.560;2023-04-08T14:34:09;100941.88;;;11.03;100.00
31096;BME280;17749;51.962;8.560;2023-04-08T14:36:36;100941.66;;;11.10;100.00
31096;BME280;17749;51.962;8.560;2023-04-08T14:39:04;100936.97;;;11.18;100.00
31096;BME280;17749;51.962;8.560;2023-04-08T14:41:31;100939.72;;;11.17;100.00
31096;BME280;17749;51.962;8.560;2023-04-08T14:43:57;100943.28;;;11.16;100.00
31096;BME280;17749;51.962;8.560;2023-04-08T14:46:25;100944.41;;;11.09;100.00
31096;BME280;17749;51.962;8.560;2023-04-08T14:48:54;100950.38;;;11.17;100.00
31096;BME280;17749;51.962;8.560;2023-04-08T14:51:21;100950.19;;;11.23;100.00
31096;BME280;17749;51.962;8.560;2023-04-08T14:53:48;100952.81;;;11.25;100.00
31096;BME280;17749;51.962;8.560;2023-04-08T14:56:15;100946.69;;;11.21;100.00
31096;BME280;17749;51.962;8.560;2023-04-08T14:58:42;100949.41;;;11.19;100.00
31096;BME280;17749;51.962;8.560;2023-04-08T15:01:09;100956.84;;;11.08;100.00
31096;BME280;17749;51.962;8.560;2023-04-08T15:03:37;100948.97;;;11.04;100.00
31096;BME280;17749;51.962;8.560;2023-04-08T15:06:05;100954.47;;;10.97;100.00
31096;BME280;17749;51.962;8.560;2023-04-08T15:08:32;100950.78;;;11.03;100.00
31096;BME280;17749;51.962;8.560;2023-04-08T15:11:00;100946.19;;;11.08;100.00
31096;BME280;17749;51.962;8.560;2023-04-08T15:13:27;100942.72;;;11.05;100.00
31096;BME280;17749;51.962;8.560;2023-04-08T15:15:54;100946.19;;;11.08;100.00
31096;BME280;17749;51.962;8.560;2023-04-08T15:18:21;100943.44;;;11.11;100.00
31096;BME280;17749;51.962;8.560;2023-04-08T15:20:48;100945.16;;;11.14;100.00
31096;BME280;17749;51.962;8.560;2023-04-08T15:23:15;100946.03;;;11.13;100.00
31096;BME280;17749;51.962;8.560;2023-04-08T15:25:42;100938.03;;;11.13;100.00
31096;BME280;17749;51.962;8.560;2023-04-08T15:28:09;100947.16;;;11.06;100.00
31096;BME280;17749;51.962;8.560;2023-04-08T15:30:36;100938.22;;;11.07;100.00
31096;BME280;17749;51.962;8.560;2023-04-08T15:33:04;100945.22;;;11.11;100.00
31096;BME280;17749;51.962;8.560;2023-04-08T15:35:31;100946.88;;;11.15;100.00
31096;BME280;17749;51.962;8.560;2023-04-08T15:37:59;100950.38;;;11.17;100.00
31096;BME280;17749;51.962;8.560;2023-04-08T15:40:26;100953.34;;;11.06;100.00
31096;BME280;17749;51.962;8.560;2023-04-08T15:42:53;100956.16;;;11.02;100.00
31096;BME280;17749;51.962;8.560;2023-04-08T15:45:20;100953.38;;;11.05;100.00
31096;BME280;17749;51.962;8.560;2023-04-08T15:47:47;100954.56;;;10.94;100.00
31096;BME280;17749;51.962;8.560;2023-04-08T15:50:15;100958.09;;;10.95;100.00
31096;BME280;17749;51.962;8.560;2023-04-08T15:52:43;100962.66;;;10.91;100.00
31096;BME280;17749;51.962;8.560;2023-04-08T15:55:10;100959.25;;;10.86;100.00
31096;BME280;17749;51.962;8.560;2023-04-08T15:57:37;100953.81;;;10.89;100.00
31096;BME280;17749;51.962;8.560;2023-04-08T16:00:09;100961.56;;;10.99;100.00
31096;BME280;17749;51.962;8.560;2023-04-08T16:02:39;100965.88;;;11.03;100.00
31096;BME280;17749;51.962;8.560;2023-04-08T16:05:06;100960.50;;;11.04;100.00
31096;BME280;17749;51.962;8.560;2023-04-08T16:07:33;100962.31;;;11.04;100.00
31096;BME280;17749;51.962;8.560;2023-04-08T16:10:00;100966.91;;;10.99;100.00
31096;BME280;17749;51.962;8.560;2023-04-08T16:12:27;100960.84;;;10.92;100.00
31096;BME280;17749;51.962;8.560;2023-04-08T16:14:54;100968.06;;;10.88;100.00
31096;BME280;17749;51.962;8.560;2023-04-08T16:17:21;100962.81;;;10.85;100.00
31096;BME280;17749;51.962;8.560;2023-04-08T16:19:49;100967.31;;;10.83;100.00
31096;BME280;17749;51.962;8.560;2023-04-08T16:22:17;100969.22;;;10.78;100.00
31096;BME280;17749;51.962;8.560;2023-04-08T16:24:44;100967.50;;;10.77;100.00
31096;BME280;17749;51.962;8.560;2023-04-08T16:27:11;100966.59;;;10.77;100.00
31096;BME280;17749;51.962;8.560;2023-04-08T16:29:38;100972.00;;;10.73;100.00
31096;BME280;17749;51.962;8.560;2023-04-08T16:32:06;100980.06;;;10.72;100.00
31096;BME280;17749;51.962;8.560;2023-04-08T16:34:34;100974.88;;;10.66;100.00
31096;BME280;17749;51.962;8.560;2023-04-08T16:37:01;100978.69;;;10.56;100.00
31096;BME280;17749;51.962;8.560;2023-04-08T16:39:29;100991.25;;;10.50;100.00
31096;BME280;17749;51.962;8.560;2023-04-08T16:41:56;100987.88;;;10.45;100.00
31096;BME280;17749;51.962;8.560;2023-04-08T16:44:22;100990.78;;;10.35;100.00
31096;BME280;17749;51.962;8.560;2023-04-08T16:46:49;100991.81;;;10.29;100.00
31096;BME280;17749;51.962;8.560;2023-04-08T16:49:16;100993.66;;;10.24;100.00
31096;BME280;17749;51.962;8.560;2023-04-08T16:51:43;100998.38;;;10.13;100.00
31096;BME280;17749;51.962;8.560;2023-04-08T16:54:10;101002.97;;;10.06;100.00
31096;BME280;17749;51.962;8.560;2023-04-08T16:56:38;100999.59;;;9.99;100.00
31096;BME280;17749;51.962;8.560;2023-04-08T16:59:11;100997.03;;;9.95;100.00
31096;BME280;17749;51.962;8.560;2023-04-08T17:01:38;101000.56;;;9.95;100.00
31096;BME280;17749;51.962;8.560;2023-04-08T17:04:05;101007.72;;;9.93;100.00
31096;BME280;17749;51.962;8.560;2023-04-08T17:06:32;100999.88;;;9.87;100.00
31096;BME280;17749;51.962;8.560;2023-04-08T17:09:01;101001.75;;;9.83;100.00
31096;BME280;17749;51.962;8.560;2023-04-08T17:11:29;101003.59;;;9.80;100.00
31096;BME280;17749;51.962;8.560;2023-04-08T17:13:56;101001.88;;;9.77;100.00
31096;BME280;17749;51.962;8.560;2023-04-08T17:16:23;100997.50;;;9.75;100.00
31096;BME280;17749;51.962;8.560;2023-04-08T17:18:51;101000.16;;;9.75;100.00
31096;BME280;17749;51.962;8.560;2023-04-08T17:21:18;101010.84;;;9.73;100.00
31096;BME280;17749;51.962;8.560;2023-04-08T17:23:45;101012.69;;;9.70;100.00
31096;BME280;17749;51.962;8.560;2023-04-08T17:26:12;101008.19;;;9.72;100.00
31096;BME280;17749;51.962;8.560;2023-04-08T17:28:39;100998.47;;;9.71;100.00
31096;BME280;17749;51.962;8.560;2023-04-08T17:31:06;101010.16;;;9.63;100.00
31096;BME280;17749;51.962;8.560;2023-04-08T17:33:33;101006.72;;;9.58;100.00
31096;BME280;17749;51.962;8.560;2023-04-08T17:36:00;101006.78;;;9.55;100.00
31096;BME280;17749;51.962;8.560;2023-04-08T17:38:27;101017.47;;;9.54;100.00
31096;BME280;17749;51.962;8.560;2023-04-08T17:40:54;101011.25;;;9.53;100.00
31096;BME280;17749;51.962;8.560;2023-04-08T17:43:21;101009.44;;;9.55;100.00
31096;BME280;17749;51.962;8.560;2023-04-08T17:45:47;101006.06;;;9.47;100.00
31096;BME280;17749;51.962;8.560;2023-04-08T17:48:16;101013.19;;;9.45;100.00
31096;BME280;17749;51.962;8.560;2023-04-08T17:50:44;101012.41;;;9.40;100.00
31096;BME280;17749;51.962;8.560;2023-04-08T17:53:11;101010.69;;;9.37;100.00
31096;BME280;17749;51.962;8.560;2023-04-08T17:55:38;101018.69;;;9.37;100.00
31096;BME280;17749;51.962;8.560;2023-04-08T17:58:04;101018.72;;;9.36;100.00
31096;BME280;17749;51.962;8.560;2023-04-08T18:00:31;101018.78;;;9.33;100.00
31096;BME280;17749;51.962;8.560;2023-04-08T18:02:58;101018.91;;;9.27;100.00